Time;durP1;ratioP1;P1;durP2;ratioP2;P2;SDS_P1;SDS_P2;PMS_P1;PMS_P2;Temp;Humidity;BMP_temperature;BMP_pressure;BME280_temperature;BME280_humidity;BME280_pressure;Samples;Min_cycle;Max_cycle;Signal;HPM_P1;HPM_P2
2023/09/16 00:00:42;;;;;;;2.00;1.90;;;19.70;68.00;;;;;;935577;149;27329;-75
2023/09/16 00:03:08;;;;;;;2.40;2.17;;;19.70;68.00;;;;;;932344;149;27404;-75
2023/09/16 00:05:38;;;;;;;2.20;2.00;;;19.70;68.00;;;;;;934390;149;27285;-74
2023/09/16 00:08:02;;;;;;;2.40;2.17;;;19.70;67.90;;;;;;932911;149;27365;-75
2023/09/16 00:10:28;;;;;;;1.90;1.80;;;19.80;68.00;;;;;;928444;150;27350;-75
2023/09/16 00:12:55;;;;;;;1.95;1.85;;;19.70;67.90;;;;;;946822;146;27310;-76
2023/09/16 00:15:22;;;;;;;2.70;1.95;;;19.80;68.00;;;;;;947292;146;27323;-75
2023/09/16 00:17:48;;;;;;;2.05;1.92;;;19.80;68.00;;;;;;946402;146;27810;-75
2023/09/16 00:20:17;;;;;;;1.92;1.82;;;19.80;67.90;;;;;;933889;149;27783;-76
2023/09/16 00:22:43;;;;;;;2.15;1.95;;;19.80;67.80;;;;;;933172;149;27295;-74
2023/09/16 00:25:14;;;;;;;2.15;1.95;;;19.90;67.80;;;;;;931509;150;27456;-74
2023/09/16 00:27:39;;;;;;;2.67;2.08;;;19.90;67.70;;;;;;942179;149;27377;-75
2023/09/16 00:30:03;;;;;;;1.85;1.75;;;19.90;67.70;;;;;;949585;147;27358;-76
2023/09/16 00:32:31;;;;;;;1.70;1.60;;;19.90;67.60;;;;;;941791;149;27324;-76
2023/09/16 00:34:56;;;;;;;1.82;1.72;;;19.90;67.60;;;;;;946615;148;27436;-75
2023/09/16 00:37:23;;;;;;;1.90;1.70;;;19.90;67.50;;;;;;946407;149;27403;-75
2023/09/16 00:39:50;;;;;;;3.45;2.10;;;19.90;67.60;;;;;;946477;149;27459;-75
2023/09/16 00:42:16;;;;;;;2.05;1.90;;;19.80;67.50;;;;;;947123;149;27441;-75
2023/09/16 00:44:43;;;;;;;2.10;1.98;;;19.80;68.30;;;;;;946037;149;27335;-75
2023/09/16 00:47:09;;;;;;;2.27;1.47;;;19.80;67.70;;;;;;945817;149;27305;-75
2023/09/16 00:49:36;;;;;;;2.00;1.90;;;19.70;67.70;;;;;;946153;149;27469;-76
2023/09/16 00:52:03;;;;;;;1.62;1.52;;;19.70;67.70;;;;;;945722;149;27400;-75
2023/09/16 00:54:29;;;;;;;1.90;1.80;;;19.70;67.70;;;;;;946230;148;27365;-75
2023/09/16 00:56:56;;;;;;;2.30;2.20;;;19.70;67.80;;;;;;946641;148;27352;-75
2023/09/16 00:59:23;;;;;;;2.37;2.10;;;19.70;67.80;;;;;;946348;148;27372;-75
2023/09/16 01:01:51;;;;;;;1.90;1.80;;;19.60;67.80;;;;;;946992;148;27411;-75
2023/09/16 01:04:18;;;;;;;2.67;1.90;;;19.60;67.90;;;;;;962164;145;27344;-76
2023/09/16 01:06:47;;;;;;;1.82;1.72;;;19.60;68.00;;;;;;929707;149;27450;-75
2023/09/16 01:09:11;;;;;;;2.27;2.00;;;19.50;68.00;;;;;;935014;149;27401;-74
2023/09/16 01:11:38;;;;;;;2.40;2.15;;;19.50;68.00;;;;;;930600;150;28376;-74
2023/09/16 01:14:05;;;;;;;2.12;1.98;;;19.50;68.10;;;;;;951193;147;27353;-74
2023/09/16 01:16:39;;;;;;;2.20;2.08;;;19.50;69.00;;;;;;926791;150;27317;-75
2023/09/16 01:19:06;;;;;;;2.60;2.00;;;19.50;68.30;;;;;;932546;149;27381;-75
2023/09/16 01:21:33;;;;;;;2.35;2.00;;;19.40;68.30;;;;;;923167;150;27345;-75
2023/09/16 01:24:18;;;;;;;2.02;1.92;;;19.40;68.40;;;;;;950490;147;27440;-75
2023/09/16 01:26:44;;;;;;;1.70;1.60;;;19.30;68.40;;;;;;951260;147;27317;-74
2023/09/16 01:29:11;;;;;;;2.10;1.90;;;19.30;68.40;;;;;;933605;150;27353;-74
2023/09/16 01:31:38;;;;;;;3.42;2.08;;;19.30;68.60;;;;;;948809;148;27416;-74
2023/09/16 01:34:04;;;;;;;2.05;1.95;;;19.20;68.60;;;;;;929501;150;27327;-75
2023/09/16 01:36:31;;;;;;;1.72;1.62;;;19.20;68.70;;;;;;942992;149;27356;-74
2023/09/16 01:38:57;;;;;;;2.80;1.92;;;19.10;68.80;;;;;;935209;149;27422;-75
2023/09/16 01:41:24;;;;;;;2.40;2.25;;;19.10;68.90;;;;;;933751;149;27687;-74
2023/09/16 01:43:50;;;;;;;2.27;1.90;;;19.10;69.10;;;;;;950389;147;27248;-75
2023/09/16 01:46:17;;;;;;;2.52;2.22;;;19.10;69.10;;;;;;932972;149;27432;-74
2023/09/16 01:48:44;;;;;;;1.98;1.87;;;19.00;69.30;;;;;;934960;149;27334;-74
2023/09/16 01:51:10;;;;;;;2.00;1.90;;;19.00;69.30;;;;;;951253;147;27352;-74
2023/09/16 01:53:37;;;;;;;2.00;1.80;;;19.00;69.50;;;;;;946489;149;27457;-74
2023/09/16 01:56:03;;;;;;;1.95;1.85;;;18.90;69.40;;;;;;944992;149;27349;-74
2023/09/16 01:58:31;;;;;;;2.52;2.22;;;18.90;69.50;;;;;;946347;148;27418;-74
2023/09/16 02:00:57;;;;;;;2.25;2.05;;;18.90;69.60;;;;;;945983;149;27402;-74
2023/09/16 02:03:23;;;;;;;2.15;2.02;;;18.80;69.60;;;;;;946804;149;27447;-74
2023/09/16 02:05:50;;;;;;;2.00;1.90;;;18.80;69.70;;;;;;945613;148;27329;-74
2023/09/16 02:08:16;;;;;;;2.40;2.20;;;18.80;69.80;;;;;;946776;149;27469;-74
2023/09/16 02:10:43;;;;;;;2.20;2.10;;;18.80;69.90;;;;;;946378;149;27756;-74
2023/09/16 02:13:10;;;;;;;2.12;1.98;;;18.70;70.00;;;;;;946018;149;27460;-74
2023/09/16 02:15:36;;;;;;;2.33;2.12;;;18.70;70.10;;;;;;945178;149;27457;-74
2023/09/16 02:18:03;;;;;;;2.35;2.17;;;18.60;70.10;;;;;;946882;148;27353;-75
2023/09/16 02:20:29;;;;;;;2.10;2.00;;;18.60;70.20;;;;;;945357;149;27340;-75
2023/09/16 02:22:56;;;;;;;2.70;2.15;;;18.50;70.30;;;;;;934862;149;27407;-75
2023/09/16 02:25:22;;;;;;;2.08;1.95;;;18.50;70.40;;;;;;944823;147;27425;-75
2023/09/16 02:27:49;;;;;;;2.20;2.10;;;18.50;70.50;;;;;;945975;147;27733;-75
2023/09/16 02:30:16;;;;;;;2.00;1.90;;;18.40;70.70;;;;;;933365;149;27345;-75
2023/09/16 02:32:42;;;;;;;2.15;2.05;;;18.40;70.90;;;;;;933600;149;27491;-74
2023/09/16 02:35:09;;;;;;;2.15;2.00;;;18.30;71.40;;;;;;952107;147;27414;-75
2023/09/16 02:37:36;;;;;;;2.83;2.15;;;18.30;71.10;;;;;;932792;149;28281;-75
2023/09/16 02:40:02;;;;;;;2.22;2.08;;;18.20;71.20;;;;;;933901;150;27312;-75
2023/09/16 02:42:29;;;;;;;2.17;2.08;;;18.20;71.40;;;;;;933465;150;27335;-75
2023/09/16 02:44:55;;;;;;;6.17;2.40;;;18.20;71.50;;;;;;934627;149;27326;-75
2023/09/16 02:47:22;;;;;;;2.40;2.17;;;18.20;71.70;;;;;;950348;147;27442;-75
2023/09/16 02:49:48;;;;;;;2.25;2.15;;;18.10;71.70;;;;;;943663;149;27274;-75
2023/09/16 02:52:15;;;;;;;2.52;2.37;;;18.10;71.80;;;;;;942821;149;27349;-75
2023/09/16 02:54:42;;;;;;;2.52;2.33;;;18.10;72.00;;;;;;943324;149;27321;-75
2023/09/16 02:57:08;;;;;;;2.22;2.05;;;18.10;72.10;;;;;;948002;146;27432;-75
2023/09/16 02:59:35;;;;;;;2.00;1.90;;;18.00;72.10;;;;;;925947;150;27452;-75
2023/09/16 03:02:01;;;;;;;2.40;2.20;;;18.00;72.20;;;;;;933145;149;27781;-75
2023/09/16 03:04:28;;;;;;;2.52;2.30;;;17.90;72.20;;;;;;925115;150;27337;-75
2023/09/16 03:06:54;;;;;;;2.30;2.20;;;17.90;72.40;;;;;;945555;147;27321;-75
2023/09/16 03:09:22;;;;;;;2.17;2.08;;;17.90;72.50;;;;;;942402;147;27990;-75
2023/09/16 03:11:48;;;;;;;2.47;2.35;;;17.80;72.60;;;;;;948320;148;27433;-75
2023/09/16 03:14:14;;;;;;;3.40;2.60;;;17.80;72.80;;;;;;949427;147;27417;-74
2023/09/16 03:16:41;;;;;;;2.50;2.30;;;17.80;73.00;;;;;;950282;148;27279;-75
2023/09/16 03:19:08;;;;;;;2.77;2.58;;;17.70;73.10;;;;;;947718;148;27437;-75
2023/09/16 03:21:34;;;;;;;2.52;2.25;;;17.70;73.20;;;;;;949953;148;28073;-75
2023/09/16 03:24:01;;;;;;;3.52;2.20;;;17.60;73.40;;;;;;949435;147;27362;-75
2023/09/16 03:26:27;;;;;;;2.15;2.05;;;17.60;73.60;;;;;;949016;148;27340;-75
2023/09/16 03:28:54;;;;;;;2.90;2.60;;;17.50;73.80;;;;;;949265;148;27756;-74
2023/09/16 03:31:20;;;;;;;2.37;2.20;;;17.50;73.90;;;;;;949656;148;27483;-75
2023/09/16 03:33:47;;;;;;;2.72;2.55;;;17.50;74.10;;;;;;949043;148;27384;-74
2023/09/16 03:36:14;;;;;;;2.30;2.20;;;17.40;74.20;;;;;;932701;150;27516;-75
2023/09/16 03:38:46;;;;;;;2.85;2.40;;;17.40;74.40;;;;;;933747;150;27330;-74
2023/09/16 03:41:13;;;;;;;2.60;2.50;;;17.30;74.60;;;;;;934713;149;27422;-74
2023/09/16 03:43:39;;;;;;;2.72;2.40;;;17.30;74.70;;;;;;932455;150;27439;-74
2023/09/16 03:46:06;;;;;;;3.20;2.90;;;17.20;74.90;;;;;;933283;150;27312;-75
2023/09/16 03:48:33;;;;;;;2.65;2.40;;;17.20;75.20;;;;;;931953;150;27343;-75
2023/09/16 03:50:59;;;;;;;2.60;2.40;;;17.20;75.80;;;;;;932987;150;27379;-74
2023/09/16 03:53:26;;;;;;;2.67;2.47;;;17.10;75.50;;;;;;932166;150;27351;-75
2023/09/16 03:55:52;;;;;;;2.70;2.50;;;17.00;75.70;;;;;;933220;150;27483;-74
2023/09/16 03:58:19;;;;;;;3.12;2.50;;;17.00;76.00;;;;;;933043;150;27353;-74
2023/09/16 04:00:47;;;;;;;2.87;2.50;;;17.00;76.20;;;;;;931066;150;27401;-74
2023/09/16 04:03:12;;;;;;;2.40;2.30;;;16.90;76.40;;;;;;932268;150;27436;-74
2023/09/16 04:05:39;;;;;;;2.35;2.25;;;16.90;76.70;;;;;;932199;150;27312;-74
2023/09/16 04:08:05;;;;;;;4.17;2.90;;;16.80;76.90;;;;;;933147;150;27263;-74
2023/09/16 04:10:32;;;;;;;2.62;2.42;;;16.80;77.30;;;;;;932342;150;27343;-74
2023/09/16 04:12:58;;;;;;;2.33;2.20;;;16.80;77.50;;;;;;932202;149;27464;-74
2023/09/16 04:15:25;;;;;;;2.90;2.65;;;16.70;77.70;;;;;;932894;149;28849;-74
2023/09/16 04:17:52;;;;;;;2.47;2.27;;;16.60;77.90;;;;;;932065;149;27351;-74
2023/09/16 04:20:24;;;;;;;2.60;2.40;;;16.70;78.30;;;;;;931686;150;27904;-74
2023/09/16 04:22:45;;;;;;;2.22;2.12;;;16.60;78.50;;;;;;933557;149;27874;-74
2023/09/16 04:25:11;;;;;;;2.50;2.30;;;16.50;78.60;;;;;;932986;150;27361;-74
2023/09/16 04:27:38;;;;;;;2.60;2.40;;;16.50;78.80;;;;;;932906;149;27423;-74
2023/09/16 04:30:05;;;;;;;2.90;2.70;;;16.50;79.20;;;;;;934231;149;27325;-74
2023/09/16 04:32:31;;;;;;;2.75;2.55;;;16.40;79.40;;;;;;932453;150;27319;-74
2023/09/16 04:34:58;;;;;;;2.62;2.47;;;16.40;79.70;;;;;;932544;150;27405;-74
2023/09/16 04:37:24;;;;;;;3.50;3.20;;;16.40;80.00;;;;;;932903;149;27866;-75
2023/09/16 04:39:51;;;;;;;3.52;3.08;;;16.40;80.40;;;;;;930971;150;27342;-75
2023/09/16 04:42:18;;;;;;;3.45;3.08;;;16.30;80.80;;;;;;931719;150;27392;-75
2023/09/16 04:44:44;;;;;;;2.95;2.75;;;16.30;81.40;;;;;;933305;150;27378;-75
2023/09/16 04:47:11;;;;;;;3.35;2.65;;;16.30;81.80;;;;;;932367;150;27910;-75
2023/09/16 04:49:37;;;;;;;4.97;2.90;;;16.30;82.00;;;;;;931822;149;27394;-75
2023/09/16 04:52:04;;;;;;;3.72;3.42;;;16.30;82.40;;;;;;932235;150;27299;-74
2023/09/16 04:54:35;;;;;;;5.00;2.80;;;16.30;82.80;;;;;;931790;150;27299;-74
2023/09/16 04:56:57;;;;;;;3.05;2.75;;;16.30;83.20;;;;;;932655;150;27430;-74
2023/09/16 04:59:24;;;;;;;4.45;3.15;;;16.20;83.40;;;;;;933168;150;27390;-75
2023/09/16 05:01:51;;;;;;;3.13;2.83;;;16.20;83.60;;;;;;931742;150;27280;-75
2023/09/16 05:04:17;;;;;;;4.45;3.40;;;16.20;84.10;;;;;;932381;150;27417;-75
2023/09/16 05:06:43;;;;;;;3.65;3.35;;;16.20;84.50;;;;;;932902;150;27436;-75
2023/09/16 05:09:10;;;;;;;3.00;2.80;;;16.20;84.80;;;;;;932014;150;27420;-75
2023/09/16 05:11:37;;;;;;;3.20;2.90;;;16.20;85.40;;;;;;933645;150;27324;-75
2023/09/16 05:14:03;;;;;;;3.45;3.15;;;16.20;85.90;;;;;;933970;149;27445;-75
2023/09/16 05:16:30;;;;;;;3.65;3.20;;;16.20;86.40;;;;;;933215;150;27336;-75
2023/09/16 05:18:56;;;;;;;5.30;4.17;;;16.20;87.10;;;;;;934747;149;27506;-75
2023/09/16 05:21:23;;;;;;;8.38;5.00;;;16.20;87.70;;;;;;933645;150;27354;-75
2023/09/16 05:23:50;;;;;;;7.17;5.15;;;16.20;88.50;;;;;;932829;149;27470;-75
2023/09/16 05:26:16;;;;;;;8.73;4.10;;;16.30;89.90;;;;;;931714;150;27385;-75
2023/09/16 05:28:43;;;;;;;3.87;3.55;;;16.40;90.70;;;;;;932081;150;27344;-75
2023/09/16 05:31:09;;;;;;;4.00;3.60;;;16.50;91.60;;;;;;933924;149;27364;-75
2023/09/16 05:33:36;;;;;;;4.35;3.47;;;16.70;92.50;;;;;;932485;150;27351;-75
2023/09/16 05:36:02;;;;;;;3.90;3.47;;;16.90;93.30;;;;;;933512;149;27314;-75
2023/09/16 05:38:29;;;;;;;3.30;3.10;;;17.30;94.00;;;;;;935967;149;27408;-75
2023/09/16 05:40:56;;;;;;;3.35;3.05;;;17.70;94.50;;;;;;934800;150;27433;-75
2023/09/16 05:43:23;;;;;;;2.95;2.75;;;18.10;94.90;;;;;;935355;149;27337;-75
2023/09/16 05:45:52;;;;;;;2.98;2.77;;;18.60;94.90;;;;;;935405;149;27315;-74
2023/09/16 05:48:18;;;;;;;3.30;2.65;;;19.10;94.50;;;;;;934286;149;27948;-75
2023/09/16 05:50:45;;;;;;;2.77;2.55;;;19.60;94.20;;;;;;935871;149;27462;-75
2023/09/16 05:53:12;;;;;;;3.35;2.70;;;20.20;93.50;;;;;;935268;149;27316;-75
2023/09/16 05:55:38;;;;;;;2.62;2.40;;;20.80;92.40;;;;;;935280;151;27383;-75
2023/09/16 05:58:06;;;;;;;2.70;2.50;;;21.30;91.20;;;;;;935851;149;27449;-75
2023/09/16 06:00:31;;;;;;;2.67;2.47;;;21.90;90.30;;;;;;935123;149;27384;-75
2023/09/16 06:02:58;;;;;;;2.98;2.75;;;22.50;88.30;;;;;;934972;148;27358;-75
2023/09/16 06:05:29;;;;;;;2.75;2.55;;;23.10;85.00;;;;;;934995;149;27325;-75
2023/09/16 06:07:51;;;;;;;2.50;2.30;;;23.60;82.50;;;;;;935022;149;27341;-75
2023/09/16 06:10:18;;;;;;;2.30;2.20;;;24.20;80.10;;;;;;935403;150;27801;-75
2023/09/16 06:12:46;;;;;;;2.35;2.25;;;24.80;78.00;;;;;;935385;149;27355;-75
2023/09/16 06:15:11;;;;;;;2.33;1.87;;;25.40;76.00;;;;;;934960;149;27346;-75
2023/09/16 06:17:37;;;;;;;2.25;2.05;;;25.90;74.20;;;;;;935286;149;27412;-75
2023/09/16 06:20:04;;;;;;;2.40;2.20;;;26.50;72.90;;;;;;936444;149;27330;-75
2023/09/16 06:22:31;;;;;;;2.22;2.00;;;27.00;71.40;;;;;;934590;149;27472;-75
2023/09/16 06:24:57;;;;;;;2.10;2.00;;;27.50;69.90;;;;;;934206;149;27452;-75
2023/09/16 06:27:24;;;;;;;2.00;1.90;;;28.00;68.40;;;;;;934556;151;27335;-75
2023/09/16 06:29:52;;;;;;;2.60;2.20;;;28.60;67.10;;;;;;932853;149;27434;-75
2023/09/16 06:32:18;;;;;;;2.60;1.95;;;29.10;65.60;;;;;;933752;149;27355;-75
2023/09/16 06:34:44;;;;;;;2.17;1.98;;;29.50;64.20;;;;;;935394;149;27710;-75
2023/09/16 06:37:10;;;;;;;2.05;1.95;;;30.00;63.00;;;;;;934519;149;27836;-76
2023/09/16 06:39:40;;;;;;;1.95;1.85;;;30.40;62.00;;;;;;935026;151;27282;-76
2023/09/16 06:42:06;;;;;;;1.90;1.80;;;30.80;61.00;;;;;;936670;149;27363;-76
2023/09/16 06:44:33;;;;;;;2.10;1.80;;;31.30;60.00;;;;;;936041;149;27448;-76
2023/09/16 06:46:59;;;;;;;2.00;1.90;;;31.70;59.20;;;;;;935787;150;27358;-76
2023/09/16 06:49:26;;;;;;;2.30;2.10;;;32.10;58.40;;;;;;935299;149;27443;-75
2023/09/16 06:51:53;;;;;;;1.92;1.82;;;32.40;57.70;;;;;;937175;149;27432;-75
2023/09/16 06:54:19;;;;;;;1.90;1.80;;;32.70;56.90;;;;;;935389;149;27778;-75
2023/09/16 06:56:46;;;;;;;1.77;1.67;;;33.10;56.40;;;;;;934864;150;27362;-76
2023/09/16 06:59:12;;;;;;;1.92;1.82;;;33.40;55.70;;;;;;936768;149;27348;-76
2023/09/16 07:01:39;;;;;;;1.77;1.62;;;33.70;55.20;;;;;;935089;150;27417;-76
2023/09/16 07:04:05;;;;;;;2.37;2.00;;;34.00;54.60;;;;;;934856;149;27367;-76
2023/09/16 07:06:32;;;;;;;1.80;1.70;;;34.30;54.10;;;;;;934626;149;27369;-76
2023/09/16 07:08:59;;;;;;;1.98;1.87;;;34.60;53.60;;;;;;934805;149;27728;-76
2023/09/16 07:11:25;;;;;;;3.45;2.58;;;34.80;52.90;;;;;;934539;149;26109;-76
2023/09/16 07:13:53;;;;;;;1.90;1.57;;;35.10;52.40;;;;;;935777;148;26243;-76
2023/09/16 07:16:19;;;;;;;2.00;1.90;;;35.40;52.00;;;;;;934883;149;26363;-76
2023/09/16 07:18:45;;;;;;;2.02;1.92;;;35.70;51.60;;;;;;935932;149;27375;-76
2023/09/16 07:21:12;;;;;;;2.02;1.92;;;35.90;50.70;;;;;;934279;149;26179;-76
2023/09/16 07:23:38;;;;;;;2.30;2.10;;;36.10;50.20;;;;;;935128;148;27308;-76
2023/09/16 07:26:05;;;;;;;2.20;1.80;;;36.30;49.50;;;;;;934717;148;27816;-75
2023/09/16 07:28:32;;;;;;;1.90;1.77;;;36.50;49.20;;;;;;935051;149;26280;-76
2023/09/16 07:30:58;;;;;;;2.10;1.90;;;36.60;48.60;;;;;;935410;148;26316;-76
2023/09/16 07:33:25;;;;;;;3.45;1.50;;;36.70;48.10;;;;;;933873;149;26246;-76
2023/09/16 07:35:52;;;;;;;1.90;1.80;;;36.90;47.70;;;;;;932399;149;27533;-76
2023/09/16 07:38:18;;;;;;;1.90;1.80;;;36.90;47.50;;;;;;924744;150;26332;-76
2023/09/16 07:40:44;;;;;;;3.08;2.02;;;37.10;47.50;;;;;;926570;151;26264;-76
2023/09/16 07:43:12;;;;;;;2.20;2.00;;;37.20;47.30;;;;;;919474;151;26400;-76
2023/09/16 07:45:38;;;;;;;2.02;1.92;;;37.50;47.20;;;;;;924859;150;26286;-76
2023/09/16 07:48:04;;;;;;;1.92;1.80;;;37.70;46.90;;;;;;926084;151;26367;-76
2023/09/16 07:50:31;;;;;;;1.80;1.70;;;37.90;46.30;;;;;;927244;150;26296;-76
2023/09/16 07:52:58;;;;;;;2.00;1.90;;;38.20;46.00;;;;;;919579;152;26220;-76
2023/09/16 07:55:24;;;;;;;2.00;1.80;;;38.40;45.60;;;;;;929479;149;26156;-75
2023/09/16 07:57:51;;;;;;;1.80;1.70;;;38.60;45.30;;;;;;930421;148;26262;-76
2023/09/16 08:00:17;;;;;;;1.85;1.75;;;38.80;44.60;;;;;;921046;151;26301;-76
2023/09/16 08:02:44;;;;;;;1.82;1.72;;;38.90;44.20;;;;;;909544;153;26283;-76
2023/09/16 08:05:10;;;;;;;1.90;1.80;;;39.10;44.00;;;;;;933045;148;26810;-76
2023/09/16 08:07:37;;;;;;;1.95;1.85;;;39.20;43.80;;;;;;936106;148;26261;-76
2023/09/16 08:10:03;;;;;;;2.08;1.85;;;39.30;43.40;;;;;;934179;149;26317;-76
2023/09/16 08:12:30;;;;;;;2.00;1.90;;;39.60;43.30;;;;;;933893;149;26273;-76
2023/09/16 08:14:57;;;;;;;1.85;1.75;;;39.80;42.70;;;;;;928216;151;26278;-76
2023/09/16 08:17:23;;;;;;;2.15;2.05;;;40.00;42.40;;;;;;930025;151;26401;-76
2023/09/16 08:19:50;;;;;;;1.95;1.85;;;40.10;42.10;;;;;;930250;150;26206;-76
2023/09/16 08:22:16;;;;;;;1.57;1.47;;;40.30;41.80;;;;;;928562;149;26336;-76
2023/09/16 08:24:43;;;;;;;1.87;1.77;;;40.50;41.60;;;;;;910606;151;26344;-76
2023/09/16 08:27:10;;;;;;;1.90;1.80;;;40.60;41.30;;;;;;914688;151;26301;-76
2023/09/16 08:29:36;;;;;;;2.65;1.67;;;40.80;41.00;;;;;;928826;151;26189;-76
2023/09/16 08:32:03;;;;;;;1.70;1.60;;;41.00;40.80;;;;;;917519;152;26374;-76
2023/09/16 08:34:29;;;;;;;2.15;1.95;;;41.20;40.60;;;;;;929106;149;26277;-76
2023/09/16 08:36:56;;;;;;;2.50;1.77;;;41.40;40.30;;;;;;937324;146;26185;-76
2023/09/16 08:39:23;;;;;;;2.58;1.90;;;41.60;39.80;;;;;;932407;148;26254;-76
2023/09/16 08:42:08;;;;;;;3.17;1.70;;;41.70;39.30;;;;;;955857;146;26216;-76
2023/09/16 08:44:34;;;;;;;2.55;2.00;;;41.80;38.90;;;;;;946700;146;26388;-76
2023/09/16 08:47:01;;;;;;;3.42;2.05;;;41.80;38.70;;;;;;935843;149;26877;-76
2023/09/16 08:49:28;;;;;;;2.12;2.00;;;41.70;38.50;;;;;;953871;146;26213;-76
2023/09/16 08:51:54;;;;;;;2.00;1.90;;;41.70;38.40;;;;;;944579;147;26274;-76
2023/09/16 08:54:21;;;;;;;2.12;2.00;;;41.60;38.10;;;;;;950170;146;26274;-76
2023/09/16 08:56:47;;;;;;;1.87;1.77;;;41.50;38.20;;;;;;950447;146;26257;-76
2023/09/16 08:59:14;;;;;;;3.95;1.90;;;41.40;38.10;;;;;;937912;149;28499;-76
2023/09/16 09:01:40;;;;;;;2.17;2.00;;;41.30;38.30;;;;;;938495;149;26314;-76
2023/09/16 09:04:07;;;;;;;2.08;1.80;;;41.30;38.20;;;;;;948759;149;26321;-76
2023/09/16 09:06:34;;;;;;;1.80;1.70;;;41.30;38.40;;;;;;950331;146;26362;-73
2023/09/16 09:09:00;;;;;;;2.00;1.90;;;41.30;38.10;;;;;;950612;147;26814;-75
2023/09/16 09:11:30;;;;;;;2.00;1.90;;;41.50;38.20;;;;;;925592;149;26190;-75
2023/09/16 09:13:53;;;;;;;1.80;1.70;;;41.60;37.90;;;;;;953272;146;26221;-75
2023/09/16 09:16:20;;;;;;;1.95;1.85;;;41.60;37.60;;;;;;953887;146;26267;-73
2023/09/16 09:18:47;;;;;;;1.98;1.87;;;41.70;37.60;;;;;;952575;146;26676;-73
2023/09/16 09:21:13;;;;;;;1.92;1.72;;;41.60;37.30;;;;;;942998;149;26232;-74
2023/09/16 09:23:41;;;;;;;2.10;2.00;;;41.70;37.40;;;;;;935654;149;26243;-74
2023/09/16 09:26:06;;;;;;;1.98;1.70;;;41.70;37.20;;;;;;935647;149;26273;-76
2023/09/16 09:28:33;;;;;;;2.10;2.00;;;41.60;37.20;;;;;;950638;146;26313;-72
2023/09/16 09:31:00;;;;;;;2.37;1.98;;;41.60;37.20;;;;;;944477;147;26318;-73
2023/09/16 09:33:26;;;;;;;2.02;1.90;;;41.60;37.20;;;;;;932788;148;26309;-73
2023/09/16 09:36:14;;;;;;;2.30;2.10;;;41.50;36.90;;;;;;952943;146;26371;-75
2023/09/16 09:38:41;;;;;;;2.20;2.10;;;41.40;36.90;;;;;;942864;148;26219;-74
2023/09/16 09:41:08;;;;;;;2.20;2.05;;;41.30;36.60;;;;;;945224;148;26271;-74
2023/09/16 09:43:34;;;;;;;2.37;2.12;;;41.00;36.70;;;;;;941426;148;26282;-73
2023/09/16 09:46:01;;;;;;;2.55;2.35;;;40.70;36.60;;;;;;945255;149;26240;-73
2023/09/16 09:48:27;;;;;;;2.55;2.35;;;40.40;36.70;;;;;;946202;148;26346;-74
2023/09/16 09:50:54;;;;;;;2.02;1.92;;;40.10;36.80;;;;;;947822;148;26259;-75
2023/09/16 09:53:21;;;;;;;2.15;2.05;;;39.70;37.00;;;;;;946728;148;26257;-73
2023/09/16 09:55:47;;;;;;;2.05;1.90;;;39.30;37.10;;;;;;947011;148;26346;-73
2023/09/16 09:58:14;;;;;;;2.50;2.30;;;38.90;37.30;;;;;;947233;148;26278;-73
2023/09/16 10:00:47;;;;;;;2.30;2.20;;;38.60;37.70;;;;;;946000;148;26172;-76
2023/09/16 10:03:13;;;;;;;2.45;2.25;;;38.30;37.90;;;;;;945549;148;26365;-73
2023/09/16 10:05:40;;;;;;;2.87;2.47;;;38.00;38.10;;;;;;945159;148;26236;-74
2023/09/16 10:08:06;;;;;;;2.77;2.58;;;37.70;38.10;;;;;;944705;148;26256;-74
2023/09/16 10:10:33;;;;;;;2.45;2.30;;;37.30;38.20;;;;;;946936;148;27463;-74
2023/09/16 10:12:59;;;;;;;2.42;2.25;;;37.00;38.30;;;;;;945571;148;26285;-76
2023/09/16 10:15:26;;;;;;;2.40;2.30;;;36.60;38.60;;;;;;945304;148;27461;-73
2023/09/16 10:17:53;;;;;;;2.47;2.27;;;36.30;39.10;;;;;;946067;148;27443;-74
2023/09/16 10:20:19;;;;;;;3.22;2.98;;;36.10;39.50;;;;;;946814;148;27419;-73
2023/09/16 10:22:46;;;;;;;2.98;2.77;;;35.80;39.60;;;;;;945463;148;27360;-75
2023/09/16 10:25:12;;;;;;;2.80;2.60;;;35.50;39.70;;;;;;947400;148;27456;-74
2023/09/16 10:28:03;;;;;;;2.60;2.40;;;35.20;40.00;;;;;;944311;148;27321;-75
2023/09/16 10:30:26;;;;;;;2.92;2.70;;;35.00;40.30;;;;;;943598;148;27330;-75
2023/09/16 10:32:53;;;;;;;4.47;3.20;;;34.70;40.60;;;;;;946783;148;27365;-75
2023/09/16 10:35:22;;;;;;;3.00;2.80;;;34.50;40.90;;;;;;947682;148;27356;-75
2023/09/16 10:37:49;;;;;;;4.12;2.95;;;34.20;41.10;;;;;;944280;148;27347;-75
2023/09/16 10:40:15;;;;;;;3.40;2.77;;;33.90;41.30;;;;;;933656;149;27333;-75
2023/09/16 10:42:42;;;;;;;2.77;2.58;;;33.60;41.80;;;;;;932893;149;27354;-75
2023/09/16 10:45:11;;;;;;;2.83;2.65;;;33.30;42.20;;;;;;932964;149;27460;-75
2023/09/16 10:47:35;;;;;;;3.05;2.85;;;33.10;42.50;;;;;;930388;151;27293;-75
2023/09/16 10:50:02;;;;;;;3.37;3.10;;;32.90;43.00;;;;;;931029;152;27329;-75
2023/09/16 10:52:31;;;;;;;3.25;3.05;;;32.70;43.30;;;;;;933355;149;27339;-75
2023/09/16 10:55:01;;;;;;;3.27;2.80;;;32.50;43.40;;;;;;930066;149;27432;-75
2023/09/16 10:57:27;;;;;;;3.15;2.95;;;32.40;43.60;;;;;;932746;151;26273;-75
2023/09/16 10:59:54;;;;;;;6.53;3.10;;;32.30;43.80;;;;;;930872;149;27394;-75
2023/09/16 11:02:30;;;;;;;3.55;3.25;;;32.10;44.10;;;;;;933031;152;27368;-75
2023/09/16 11:04:56;;;;;;;3.12;2.92;;;32.00;44.40;;;;;;931252;151;27347;-75
2023/09/16 11:07:23;;;;;;;3.08;2.77;;;31.90;44.60;;;;;;932334;152;27379;-75
2023/09/16 11:09:50;;;;;;;3.22;3.02;;;31.80;44.80;;;;;;932935;149;27451;-75
2023/09/16 11:12:16;;;;;;;3.10;2.90;;;31.70;45.00;;;;;;933603;152;27331;-75
2023/09/16 11:14:43;;;;;;;3.33;2.80;;;31.60;45.20;;;;;;934782;152;27456;-75
2023/09/16 11:17:14;;;;;;;3.12;2.92;;;31.40;45.40;;;;;;934361;152;26280;-75
2023/09/16 11:19:39;;;;;;;3.15;2.90;;;31.40;45.60;;;;;;933398;152;27351;-75
2023/09/16 11:22:05;;;;;;;2.90;2.70;;;31.30;45.70;;;;;;934544;149;27335;-75
2023/09/16 11:24:32;;;;;;;4.05;2.77;;;31.20;45.90;;;;;;933234;149;27449;-75
2023/09/16 11:26:59;;;;;;;2.90;2.70;;;31.10;46.30;;;;;;931837;149;27805;-75
2023/09/16 11:29:25;;;;;;;3.12;2.92;;;31.10;46.40;;;;;;933107;149;27313;-75
2023/09/16 11:31:52;;;;;;;3.15;2.95;;;31.00;46.60;;;;;;932772;150;27326;-75
2023/09/16 11:34:18;;;;;;;3.05;2.85;;;31.00;46.60;;;;;;932660;149;27391;-75
2023/09/16 11:36:45;;;;;;;2.95;2.75;;;30.90;46.70;;;;;;932894;151;27405;-75
2023/09/16 11:39:11;;;;;;;3.20;3.00;;;30.90;46.90;;;;;;931671;149;28096;-75
2023/09/16 11:41:38;;;;;;;3.10;2.90;;;30.80;47.10;;;;;;934675;152;27340;-75
2023/09/16 11:44:05;;;;;;;3.27;2.98;;;30.80;47.30;;;;;;932177;152;27243;-75
2023/09/16 11:46:31;;;;;;;3.27;3.08;;;30.70;47.50;;;;;;933964;152;27455;-75
2023/09/16 11:48:59;;;;;;;2.90;2.70;;;30.70;47.70;;;;;;933076;151;27442;-75
2023/09/16 11:51:24;;;;;;;3.20;3.00;;;30.80;47.90;;;;;;933259;152;27361;-75
2023/09/16 11:53:51;;;;;;;3.42;3.22;;;30.80;47.90;;;;;;934347;149;27310;-75
2023/09/16 11:56:17;;;;;;;3.60;3.40;;;30.80;47.90;;;;;;934822;152;27359;-75
2023/09/16 11:58:44;;;;;;;3.37;3.12;;;30.80;47.80;;;;;;932054;152;27343;-75
2023/09/16 12:01:13;;;;;;;3.22;3.02;;;30.90;48.00;;;;;;933428;151;27313;-75
2023/09/16 12:03:40;;;;;;;3.45;3.20;;;30.80;47.90;;;;;;933751;149;27475;-75
2023/09/16 12:06:07;;;;;;;3.15;2.92;;;30.80;48.00;;;;;;932283;152;27377;-75
2023/09/16 12:08:33;;;;;;;3.10;2.90;;;30.80;47.90;;;;;;933870;149;27446;-75
2023/09/16 12:11:00;;;;;;;3.17;2.98;;;30.80;48.10;;;;;;932452;149;27450;-75
2023/09/16 12:13:29;;;;;;;4.55;3.08;;;30.80;48.30;;;;;;933683;149;27265;-75
2023/09/16 12:15:56;;;;;;;2.92;2.72;;;30.80;48.20;;;;;;934766;149;27358;-75
2023/09/16 12:18:22;;;;;;;4.53;3.12;;;30.80;48.20;;;;;;934398;152;27367;-75
2023/09/16 12:20:49;;;;;;;5.17;3.22;;;30.70;48.20;;;;;;935267;149;27302;-75
2023/09/16 12:23:16;;;;;;;3.35;3.05;;;30.70;48.40;;;;;;933111;151;27344;-75
2023/09/16 12:25:42;;;;;;;2.87;2.62;;;30.70;48.50;;;;;;932983;149;27465;-75
2023/09/16 12:28:21;;;;;;;3.30;3.10;;;30.70;48.60;;;;;;934799;149;27493;-75
2023/09/16 12:30:52;;;;;;;3.17;2.98;;;30.70;48.60;;;;;;933782;149;27426;-75
2023/09/16 12:33:19;;;;;;;3.10;2.85;;;30.70;48.50;;;;;;933981;149;27351;-75
2023/09/16 12:35:48;;;;;;;3.08;2.87;;;30.70;48.60;;;;;;932505;149;27468;-75
2023/09/16 12:38:14;;;;;;;2.87;2.67;;;30.70;48.70;;;;;;931585;152;27481;-75
2023/09/16 12:40:39;;;;;;;4.80;2.83;;;30.70;48.60;;;;;;933534;149;27488;-75
2023/09/16 12:43:05;;;;;;;3.30;3.00;;;30.60;48.60;;;;;;934903;149;27442;-75
2023/09/16 12:45:32;;;;;;;2.95;2.75;;;30.60;48.80;;;;;;935234;148;27342;-75